Airfield :
LOGIN :

Register | Disclaimer

   EN    FR    IT 

 










Legend :    VFR   Marginal VFR   IFR   Intensive IFR   Very Intensive IFR
Visi :
Ceiling :
>= 8 km
>= 3000ft
5 to 8 km
1000 to 3000 ft
1500m to 5 km
500 to 1000 ft
800 to 1500m
200 to 500 ft
< 800m
< 200 ft
Symbols :   Thunderstorms  Fog  Heavy snow  Heavy precipitations  Wind > 20 kt
SIGMETs :     Misc.  Thunderstorms  Icing  Turbulence  Mountain Waves  Volcanic Ashes






- Airport Elevation : 162 ft
- IATA code : BOD


LFBD - Bordeaux / Merignac

CURRENT METAR :
  • 221400Z AUTO 05008KT 010V080 9999 BKN037 BKN140 11/06 Q1024 NOSIG

EXPIRED METARs :
  • 221330Z AUTO 04008KT 9999 BKN036 OVC043 11/06 Q1024 NOSIG
  • 221300Z AUTO 03011KT 9999 OVC048 11/07 Q1024 NOSIG
  • 221230Z AUTO 04012KT 9999 SCT039 OVC052 10/08 Q1025 NOSIG
  • 221200Z AUTO 03010KT 9999 BKN040/// OVC052/// ///TCU 09/08 Q1025 BECMG NSC
  • 221130Z AUTO 06008KT 9999 RA FEW041/// BKN056/// OVC066/// ///TCU 09/07 Q1026 BECMG NSW NSC

TAF TAF LFBD
Valid from the 22 at 12:00 until the 23 at 18:00 UTC


221100Z 2212/2318 06010KT CAVOK TX12/2215Z TN08/2305Z
TEMPO 2216/2224 4000 -RA BKN030
TEMPO 2309/2313 4000 -RA
BECMG 2313/2315 16005KT
PROB30
TEMPO 2315/2318 3000 -SHRA BKN015TCU
ATIS : +33 5 57 92 81 04



MET'MAP, your aeronautical weather chart ! - Copyright ORBIFLY December 2007 - Disclaimer

ORBIFLY MET'MAP TEAM :

Programming & Development : Alexandra Zaïnal
Concept & original design : Baudouin d'Aumeries
Assistance for programming : Marc-Olivier Méhu
Technical & hardware support : Manuel Goepfert

Contact : metmap@orbifly.com




SOURCES & CREDITS :

   NOAA